createdAt,value
2019-04-06T00:02:32.684Z,92.40
2019-04-06T00:07:36.213Z,92.80
2019-04-06T00:12:39.608Z,92.60
2019-04-06T00:17:42.988Z,92.80
2019-04-06T00:22:46.372Z,93.40
2019-04-06T00:27:49.755Z,93.30
2019-04-06T00:33:06.687Z,93.40
2019-04-06T00:38:10.075Z,93.60
2019-04-06T00:43:13.455Z,93.90
2019-04-06T00:48:16.827Z,93.80
2019-04-06T00:53:20.276Z,93.90
2019-04-06T00:58:23.670Z,93.80
2019-04-06T01:03:27.051Z,93.80
2019-04-06T01:08:30.439Z,94.00
2019-04-06T01:13:33.831Z,94.20
2019-04-06T01:18:37.207Z,94.50
2019-04-06T01:23:40.586Z,94.70
2019-04-06T01:28:43.967Z,95.10
2019-04-06T01:33:47.357Z,95.30
2019-04-06T01:38:50.743Z,95.30
2019-04-06T01:43:54.131Z,95.70
2019-04-06T01:48:57.507Z,96.00
2019-04-06T01:54:00.898Z,96.10
2019-04-06T01:59:04.343Z,96.60
2019-04-06T02:04:07.802Z,96.70
2019-04-06T02:09:11.215Z,96.60
2019-04-06T02:14:14.651Z,96.60
2019-04-06T02:19:18.103Z,96.90
2019-04-06T02:24:21.491Z,97.00
2019-04-06T02:29:24.891Z,97.20
2019-04-06T02:34:29.910Z,97.40
2019-04-06T02:39:43.863Z,97.70
2019-04-06T02:44:47.240Z,97.80
2019-04-06T02:49:50.636Z,97.70
2019-04-06T02:54:54.043Z,97.90
2019-04-06T02:59:57.588Z,98.20
2019-04-06T03:05:01.105Z,98.10
2019-04-06T03:10:06.112Z,98.20
2019-04-06T03:15:09.691Z,98.40
2019-04-06T03:20:13.295Z,98.50
2019-04-06T03:25:16.670Z,98.50
2019-04-06T03:30:20.268Z,98.80
2019-04-06T03:35:23.680Z,98.60
2019-04-06T03:40:27.076Z,99.10
2019-04-06T03:45:30.465Z,99.40
2019-04-06T03:50:33.863Z,99.30
2019-04-06T03:55:37.244Z,99.90
2019-04-06T04:00:40.672Z,99.70
2019-04-06T04:05:44.088Z,99.90
2019-04-06T04:10:48.071Z,99.90
2019-04-06T04:15:51.539Z,99.80
2019-04-06T04:20:55.102Z,99.90
2019-04-06T04:25:58.493Z,99.90
2019-04-06T04:31:01.889Z,99.90
2019-04-06T04:36:05.328Z,99.90
2019-04-06T04:41:08.794Z,99.90
2019-04-06T04:46:12.277Z,99.90
2019-04-06T04:51:15.647Z,99.90
2019-04-06T04:56:19.028Z,99.90
2019-04-06T05:01:22.412Z,99.90
2019-04-06T05:06:25.797Z,99.90
2019-04-06T05:11:29.179Z,99.90
2019-04-06T05:16:32.559Z,99.90
2019-04-06T05:21:35.947Z,99.90
2019-04-06T05:26:39.337Z,99.90
2019-04-06T05:31:42.720Z,99.90
2019-04-06T05:36:46.091Z,99.90
2019-04-06T05:41:50.786Z,99.90
2019-04-06T05:46:54.439Z,99.90
2019-04-06T05:51:57.823Z,99.90
2019-04-06T05:57:01.222Z,99.90
2019-04-06T06:02:04.873Z,99.90
2019-04-06T06:07:08.290Z,99.90
2019-04-06T06:12:12.858Z,99.90
2019-04-06T06:17:16.247Z,99.90
2019-04-06T06:22:19.627Z,99.90
2019-04-06T06:27:23.381Z,99.90
2019-04-06T06:32:26.926Z,99.90
2019-04-06T06:37:30.342Z,99.90
2019-04-06T06:42:33.892Z,99.90
2019-04-06T06:47:37.299Z,99.90
2019-04-06T06:52:40.695Z,99.90
2019-04-06T06:57:44.074Z,99.90
2019-04-06T07:02:47.471Z,99.90
2019-04-06T07:07:50.871Z,99.50
2019-04-06T07:12:54.246Z,99.00
2019-04-06T07:17:57.677Z,98.20
2019-04-06T07:23:01.103Z,97.90
2019-04-06T07:28:04.490Z,96.50
2019-04-06T07:33:07.877Z,95.60
2019-04-06T07:38:11.267Z,94.70
2019-04-06T07:43:14.662Z,94.10
2019-04-06T07:48:18.311Z,93.50
2019-04-06T07:53:21.700Z,93.00
2019-04-06T07:58:25.087Z,91.80
2019-04-06T08:03:28.471Z,91.60
2019-04-06T08:08:31.903Z,90.20
2019-04-06T08:13:35.292Z,89.10
2019-04-06T08:18:38.699Z,87.40
2019-04-06T08:23:42.093Z,87.00
2019-04-06T08:28:45.497Z,86.70
2019-04-06T08:33:48.955Z,86.70
2019-04-06T08:38:52.340Z,86.20
2019-04-06T08:43:55.797Z,85.60
2019-04-06T08:48:59.202Z,84.00
2019-04-06T08:54:02.597Z,83.40
2019-04-06T08:59:11.626Z,81.80
2019-04-06T09:04:11.160Z,80.80
2019-04-06T09:09:14.539Z,78.80
2019-04-06T09:14:17.938Z,79.00
2019-04-06T09:19:21.315Z,78.90
2019-04-06T09:24:24.700Z,77.10
2019-04-06T09:29:28.143Z,78.00
2019-04-06T09:34:31.588Z,76.30
2019-04-06T09:39:35.007Z,74.80
2019-04-06T09:44:45.875Z,74.10
2019-04-06T09:50:06.906Z,73.60
2019-04-06T09:55:17.636Z,72.60
2019-04-06T10:00:25.442Z,70.60
2019-04-06T10:05:33.395Z,70.60
2019-04-06T10:10:56.086Z,69.60
2019-04-06T10:16:07.071Z,69.30
2019-04-06T10:21:14.920Z,69.80
2019-04-06T10:26:36.063Z,68.60
2019-04-06T10:31:41.096Z,68.10
2019-04-06T10:36:48.943Z,68.20
2019-04-06T10:41:59.635Z,67.10
2019-04-06T10:47:07.625Z,66.60
2019-04-06T10:52:12.647Z,67.20
2019-04-06T10:57:23.835Z,65.40
2019-04-06T11:02:44.579Z,66.50
2019-04-06T11:07:49.612Z,64.20
2019-04-06T11:13:00.416Z,65.10
2019-04-06T11:18:08.546Z,65.00
2019-04-06T11:23:25.382Z,64.60
2019-04-06T11:28:30.470Z,63.20
2019-04-06T11:33:41.287Z,64.60
2019-04-06T11:39:01.544Z,63.60
2019-04-06T11:44:09.648Z,64.20
2019-04-06T11:49:30.935Z,63.80
2019-04-06T11:54:36.263Z,62.90
2019-04-06T11:59:41.487Z,61.80
2019-04-06T12:04:58.723Z,61.50
2019-04-06T12:10:12.216Z,63.60
2019-04-06T12:15:29.065Z,62.00
2019-04-06T12:20:36.771Z,61.80
2019-04-06T12:25:41.823Z,62.80
2019-04-06T12:30:52.920Z,62.00
2019-04-06T12:36:06.810Z,59.90
2019-04-06T12:41:18.261Z,61.40
2019-04-06T12:46:35.288Z,62.10
2019-04-06T12:51:46.225Z,61.60
2019-04-06T12:56:59.981Z,60.30
2019-04-06T13:02:14.084Z,59.60
2019-04-06T13:07:25.166Z,60.80
2019-04-06T13:12:36.047Z,59.80
2019-04-06T13:17:41.305Z,59.80
2019-04-06T13:27:49.205Z,58.40
2019-04-06T13:33:02.134Z,57.70
2019-04-06T13:38:07.167Z,60.20
2019-04-06T13:43:30.849Z,59.30
2019-04-06T13:48:35.964Z,59.60
2019-04-06T13:53:57.234Z,59.20
2019-04-06T13:59:02.260Z,59.20
2019-04-06T14:04:07.295Z,58.60
2019-04-06T14:09:15.474Z,60.00
2019-04-06T14:14:36.739Z,59.10
2019-04-06T14:19:53.934Z,60.40
2019-04-06T14:25:05.044Z,58.50
2019-04-06T14:30:22.463Z,58.30
2019-04-06T14:35:39.106Z,57.20
2019-04-06T14:41:00.033Z,57.50
2019-04-06T14:46:20.977Z,55.10
2019-04-06T14:51:40.746Z,57.00
2019-04-06T14:56:45.787Z,58.00
2019-04-06T15:02:07.251Z,57.80
2019-04-06T15:07:24.397Z,57.90
2019-04-06T15:12:32.125Z,57.60
2019-04-06T15:17:40.164Z,57.80
2019-04-06T15:23:01.302Z,58.10
2019-04-06T15:28:18.588Z,57.50
2019-04-06T15:33:26.603Z,57.80
2019-04-06T15:38:31.713Z,57.70
2019-04-06T15:43:39.789Z,57.90
2019-04-06T15:49:02.965Z,58.10
2019-04-06T15:54:07.986Z,58.20
2019-04-06T15:59:20.141Z,58.20
2019-04-06T16:04:41.502Z,58.70
2019-04-06T16:09:46.531Z,58.30
2019-04-06T16:15:07.815Z,58.40
2019-04-06T16:20:12.923Z,58.50
2019-04-06T16:25:20.663Z,58.70
2019-04-06T16:30:29.014Z,58.90
2019-04-06T16:35:37.393Z,59.10
2019-04-06T16:40:45.396Z,59.40
2019-04-06T16:45:59.401Z,59.10
2019-04-06T16:51:22.392Z,59.20
2019-04-06T16:56:27.554Z,59.30
2019-04-06T17:01:35.492Z,59.40
2019-04-06T17:06:56.887Z,59.40
2019-04-06T17:12:16.731Z,59.30
2019-04-06T17:17:24.467Z,60.00
2019-04-06T17:22:35.199Z,59.40
2019-04-06T17:27:40.215Z,59.60
2019-04-06T17:33:01.638Z,59.70
2019-04-06T17:38:15.385Z,59.60
2019-04-06T17:43:36.516Z,59.80
2019-04-06T17:48:47.495Z,59.80
2019-04-06T17:53:52.587Z,60.00
2019-04-06T17:58:57.616Z,60.20
2019-04-06T18:04:18.661Z,60.50
2019-04-06T18:09:26.631Z,60.70
2019-04-06T18:14:30.352Z,61.00
2019-04-06T18:19:34.815Z,61.30
2019-04-06T18:24:38.618Z,61.50
2019-04-06T18:29:42.065Z,61.70
2019-04-06T18:34:45.833Z,62.10
2019-04-06T18:39:50.864Z,62.30
2019-04-06T18:44:54.543Z,62.70
2019-04-06T18:49:58.009Z,63.00
2019-04-06T18:55:01.375Z,63.50
2019-04-06T19:00:13.359Z,63.50
2019-04-06T19:05:17.330Z,63.50
2019-04-06T19:10:23.471Z,63.50
2019-04-06T19:15:26.860Z,63.60
2019-04-06T19:20:30.437Z,63.90
2019-04-06T19:25:33.865Z,64.40
2019-04-06T19:30:37.475Z,64.90
2019-04-06T19:35:40.828Z,65.10
2019-04-06T19:40:44.214Z,65.20
2019-04-06T19:45:47.633Z,65.60
2019-04-06T19:50:51.563Z,65.70
2019-04-06T19:55:55.063Z,65.80
2019-04-06T20:00:58.688Z,66.00
2019-04-06T20:06:02.626Z,66.20
2019-04-06T20:11:06.333Z,66.20
2019-04-06T20:16:09.878Z,66.50
2019-04-06T20:21:13.275Z,67.00
2019-04-06T20:26:16.674Z,67.00
2019-04-06T20:31:20.684Z,67.60
2019-04-06T20:36:24.106Z,67.70
2019-04-06T20:41:27.878Z,68.20
2019-04-06T20:46:31.243Z,68.20
2019-04-06T20:51:34.629Z,68.60
2019-04-06T20:56:38.017Z,68.80
2019-04-06T21:01:41.677Z,69.20
2019-04-06T21:06:45.072Z,70.00
2019-04-06T21:11:48.970Z,69.80
2019-04-06T21:16:53.400Z,70.50
2019-04-06T21:21:58.825Z,70.70
2019-04-06T21:27:02.194Z,71.00
2019-04-06T21:32:06.295Z,70.90
2019-04-06T21:37:09.841Z,71.50
2019-04-06T21:42:13.243Z,71.00
2019-04-06T21:47:16.829Z,71.50
2019-04-06T21:52:20.334Z,71.50
2019-04-06T21:57:24.612Z,71.40
2019-04-06T22:02:28.612Z,71.90
2019-04-06T22:07:32.434Z,72.00
2019-04-06T22:12:35.992Z,72.30
2019-04-06T22:17:39.983Z,72.00
2019-04-06T22:22:43.447Z,72.50
2019-04-06T22:27:47.537Z,72.60
2019-04-06T22:32:51.366Z,72.50
2019-04-06T22:37:56.118Z,72.50
2019-04-06T22:42:59.749Z,72.90
2019-04-06T22:48:03.539Z,73.00
2019-04-06T22:53:07.509Z,73.40
2019-04-06T22:58:11.026Z,73.00
2019-04-06T23:03:32.258Z,73.40
2019-04-06T23:08:35.758Z,73.40
2019-04-06T23:13:39.390Z,73.50
2019-04-06T23:18:42.831Z,73.80
2019-04-06T23:23:46.472Z,74.50
2019-04-06T23:28:50.260Z,74.40
2019-04-06T23:33:54.198Z,74.40
2019-04-06T23:38:57.562Z,76.10
2019-04-06T23:44:01.466Z,75.70
2019-04-06T23:49:05.470Z,76.40
2019-04-06T23:54:08.845Z,76.30
2019-04-06T23:59:12.215Z,76.60
